createdAt,value
2018-05-21T00:04:20.064Z,1013.94
2018-05-21T00:09:15.739Z,1013.86
2018-05-21T00:14:12.065Z,1013.86
2018-05-21T00:19:07.933Z,1013.80
2018-05-21T00:24:04.760Z,1013.87
2018-05-21T00:29:00.013Z,1013.81
2018-05-21T00:33:56.225Z,1013.71
2018-05-21T00:38:52.986Z,1013.66
2018-05-21T00:43:48.520Z,1013.67
2018-05-21T00:48:44.435Z,1013.68
2018-05-21T00:53:41.164Z,1013.61
2018-05-21T00:58:37.890Z,1013.57
2018-05-21T01:03:33.552Z,1013.49
2018-05-21T01:08:30.517Z,1013.43
2018-05-21T01:13:26.143Z,1013.50
2018-05-21T01:18:21.803Z,1013.47
2018-05-21T01:23:17.698Z,1013.42
2018-05-21T01:28:13.540Z,1013.37
2018-05-21T01:33:09.642Z,1013.39
2018-05-21T01:38:06.261Z,1013.27
2018-05-21T01:43:02.120Z,1013.31
2018-05-21T01:47:57.966Z,1013.41
2018-05-21T01:52:54.820Z,1013.30
2018-05-21T01:57:50.422Z,1013.30
2018-05-21T02:02:46.132Z,1013.37
2018-05-21T02:07:43.013Z,1013.35
2018-05-21T02:12:38.761Z,1013.24
2018-05-21T02:17:36.137Z,1013.31
2018-05-21T02:22:33.191Z,1013.24
2018-05-21T02:27:28.899Z,1013.24
2018-05-21T02:32:25.000Z,1013.24
2018-05-21T02:37:21.470Z,1013.24
2018-05-21T02:42:18.186Z,1013.17
2018-05-21T02:47:13.834Z,1013.23
2018-05-21T02:52:09.544Z,1013.17
2018-05-21T02:57:06.402Z,1013.14
2018-05-21T03:02:02.952Z,1013.04
2018-05-21T03:06:59.416Z,1013.12
2018-05-21T03:11:55.703Z,1013.03
2018-05-21T03:16:51.289Z,1013.07
2018-05-21T03:21:47.287Z,1013.02
2018-05-21T03:26:43.181Z,1012.96
2018-05-21T03:31:39.061Z,1012.92
2018-05-21T03:36:35.855Z,1012.86
2018-05-21T03:41:31.550Z,1012.83
2018-05-21T03:46:27.473Z,1012.91
2018-05-21T03:51:24.241Z,1012.95
2018-05-21T03:56:19.496Z,1012.92
2018-05-21T04:01:15.351Z,1012.76
2018-05-21T04:06:11.223Z,1012.79
2018-05-21T04:11:07.243Z,1012.74
2018-05-21T04:16:04.013Z,1012.77
2018-05-21T04:20:59.526Z,1012.80
2018-05-21T04:25:55.819Z,1012.83
2018-05-21T04:30:52.400Z,1012.86
2018-05-21T04:35:49.082Z,1012.78
2018-05-21T04:40:46.756Z,1012.80
2018-05-21T04:45:42.901Z,1012.73
2018-05-21T04:50:39.499Z,1012.76
2018-05-21T04:55:35.947Z,1012.76
2018-05-21T05:00:33.530Z,1012.77
2018-05-21T05:05:29.897Z,1012.71
2018-05-21T05:10:27.542Z,1012.75
2018-05-21T05:15:22.581Z,1012.70
2018-05-21T05:20:18.442Z,1012.80
2018-05-21T05:25:13.775Z,1012.67
2018-05-21T05:30:10.151Z,1012.62
2018-05-21T05:35:06.416Z,1012.64
2018-05-21T05:40:02.613Z,1012.66
2018-05-21T05:44:59.154Z,1012.63
2018-05-21T05:49:56.392Z,1012.61
2018-05-21T05:54:53.063Z,1012.63
2018-05-21T05:59:48.078Z,1012.70
2018-05-21T06:04:42.841Z,1012.76
2018-05-21T06:09:38.305Z,1012.51
2018-05-21T06:14:33.737Z,1012.47
2018-05-21T06:19:29.546Z,1012.52
2018-05-21T06:24:25.007Z,1012.48
2018-05-21T06:29:21.871Z,1012.41
2018-05-21T06:34:17.920Z,1012.43
2018-05-21T06:39:13.894Z,1012.38
2018-05-21T06:44:09.713Z,1012.35
2018-05-21T06:49:06.455Z,1012.28
2018-05-21T06:54:02.268Z,1012.35
2018-05-21T06:58:58.373Z,1012.35
2018-05-21T07:03:54.388Z,1012.33
2018-05-21T07:08:50.858Z,1012.33
2018-05-21T07:13:47.669Z,1012.27
2018-05-21T07:18:43.433Z,1012.26
2018-05-21T07:23:39.050Z,1012.22
2018-05-21T07:28:35.977Z,1012.31
2018-05-21T07:33:32.119Z,1012.10
2018-05-21T07:38:29.088Z,1012.13
2018-05-21T07:43:24.902Z,1012.03
2018-05-21T07:48:21.913Z,1012.06
2018-05-21T07:53:22.053Z,1012.09
2018-05-21T07:58:20.247Z,1012.03
2018-05-21T08:03:18.023Z,1011.97
2018-05-21T08:08:15.940Z,1012.00
2018-05-21T08:13:14.174Z,1011.96
2018-05-21T08:18:10.892Z,1011.79
2018-05-21T08:23:08.965Z,1011.83
2018-05-21T08:28:05.456Z,1011.85
2018-05-21T08:33:01.923Z,1011.93
2018-05-21T08:37:57.534Z,1011.77
2018-05-21T08:42:54.879Z,1011.74
2018-05-21T08:47:50.960Z,1011.69
2018-05-21T08:52:46.819Z,1011.61
2018-05-21T08:57:42.739Z,1011.68
2018-05-21T09:02:39.755Z,1011.65
2018-05-21T09:07:36.251Z,1011.61
2018-05-21T09:12:33.553Z,1011.55
2018-05-21T09:17:30.075Z,1011.43
2018-05-21T09:22:26.349Z,1011.45
2018-05-21T09:27:22.260Z,1011.35
2018-05-21T09:32:18.999Z,1011.39
2018-05-21T09:37:14.889Z,1011.42
2018-05-21T09:42:10.853Z,1011.28
2018-05-21T09:47:07.246Z,1011.36
2018-05-21T09:52:03.596Z,1011.23
2018-05-21T09:57:00.235Z,1011.17
2018-05-21T10:01:56.818Z,1011.07
2018-05-21T10:06:53.052Z,1010.95
2018-05-21T10:11:49.488Z,1010.89
2018-05-21T10:16:45.652Z,1010.82
2018-05-21T10:21:42.950Z,1010.78
2018-05-21T10:26:39.063Z,1010.69
2018-05-21T10:31:34.886Z,1010.65
2018-05-21T10:36:30.386Z,1010.70
2018-05-21T10:41:26.517Z,1010.52
2018-05-21T10:46:22.901Z,1010.41
2018-05-21T10:51:20.579Z,1010.44
2018-05-21T10:56:18.028Z,1010.44
2018-05-21T11:01:15.296Z,1010.32
2018-05-21T11:06:11.566Z,1010.25
2018-05-21T11:11:08.783Z,1009.98
2018-05-21T11:16:05.300Z,1010.07
2018-05-21T11:21:01.581Z,1009.99
2018-05-21T11:25:58.012Z,1009.85
2018-05-21T11:30:54.902Z,1009.81
2018-05-21T11:35:51.014Z,1009.82
2018-05-21T11:40:47.324Z,1009.73
2018-05-21T11:45:44.813Z,1009.64
2018-05-21T11:50:40.693Z,1009.59
2018-05-21T11:55:37.997Z,1009.48
2018-05-21T12:00:33.633Z,1009.35
2018-05-21T12:05:30.140Z,1009.37
2018-05-21T12:10:27.457Z,1009.35
2018-05-21T12:15:23.436Z,1009.28
2018-05-21T12:20:19.320Z,1009.20
2018-05-21T12:25:15.042Z,1009.03
2018-05-21T12:30:11.002Z,1009.22
2018-05-21T12:35:06.499Z,1009.16
2018-05-21T12:40:02.170Z,1009.01
2018-05-21T12:44:57.625Z,1009.04
2018-05-21T12:49:53.218Z,1008.94
2018-05-21T12:54:49.171Z,1008.93
2018-05-21T12:59:46.059Z,1008.98
2018-05-21T13:04:41.424Z,1008.92
2018-05-21T13:09:38.490Z,1008.90
2018-05-21T13:14:34.003Z,1008.82
2018-05-21T13:19:29.977Z,1008.88
2018-05-21T13:24:25.587Z,1008.80
2018-05-21T13:29:21.620Z,1008.82
2018-05-21T13:34:17.211Z,1008.66
2018-05-21T13:39:14.582Z,1008.53
2018-05-21T13:44:10.285Z,1008.54
2018-05-21T13:49:05.965Z,1008.50
2018-05-21T13:54:01.687Z,1008.48
2018-05-21T13:58:59.504Z,1008.39
2018-05-21T14:03:55.297Z,1008.39
2018-05-21T14:08:50.985Z,1008.29
2018-05-21T14:13:45.880Z,1008.18
2018-05-21T14:18:40.686Z,1008.17
2018-05-21T14:23:36.483Z,1008.04
2018-05-21T14:28:31.995Z,1007.97
2018-05-21T14:33:27.418Z,1007.82
2018-05-21T14:38:24.013Z,1007.99
2018-05-21T14:43:19.298Z,1007.88
2018-05-21T14:48:14.893Z,1007.85
2018-05-21T14:53:11.286Z,1007.79
2018-05-21T14:58:06.984Z,1007.79
2018-05-21T15:03:03.028Z,1007.74
2018-05-21T15:07:58.999Z,1007.56
2018-05-21T15:12:54.877Z,1007.52
2018-05-21T15:17:52.224Z,1007.55
2018-05-21T15:22:48.855Z,1007.38
2018-05-21T15:27:44.527Z,1007.41
2018-05-21T15:32:40.232Z,1007.37
2018-05-21T15:37:36.109Z,1007.36
2018-05-21T15:42:32.056Z,1007.35
2018-05-21T15:47:27.964Z,1007.41
2018-05-21T15:52:24.938Z,1007.43
2018-05-21T15:57:21.422Z,1007.30
2018-05-21T16:02:17.082Z,1007.27
2018-05-21T16:07:14.068Z,1007.22
2018-05-21T16:12:09.941Z,1007.14
2018-05-21T16:17:06.743Z,1007.11
2018-05-21T16:22:02.376Z,1007.01
2018-05-21T16:26:58.298Z,1007.06
2018-05-21T16:31:54.289Z,1007.01
2018-05-21T16:36:50.431Z,1006.99
2018-05-21T16:41:46.350Z,1007.04
2018-05-21T16:46:42.182Z,1007.00
2018-05-21T16:51:38.145Z,1007.02
2018-05-21T16:56:34.013Z,1006.94
2018-05-21T17:01:29.908Z,1006.99
2018-05-21T17:06:25.859Z,1006.94
2018-05-21T17:11:22.775Z,1006.84
2018-05-21T17:16:18.691Z,1006.95
2018-05-21T17:21:14.813Z,1006.76
2018-05-21T17:26:11.048Z,1006.81
2018-05-21T17:31:07.281Z,1006.80
2018-05-21T17:36:03.114Z,1006.73
2018-05-21T17:40:59.312Z,1006.77
2018-05-21T17:45:55.242Z,1006.73
2018-05-21T17:50:51.190Z,1006.70
2018-05-21T17:55:47.075Z,1006.70
2018-05-21T18:00:42.965Z,1006.81
2018-05-21T18:05:38.691Z,1006.76
2018-05-21T18:10:34.403Z,1006.76
2018-05-21T18:15:30.167Z,1006.78
2018-05-21T18:20:26.012Z,1006.78
2018-05-21T18:25:21.653Z,1006.78
2018-05-21T18:30:17.780Z,1006.67
2018-05-21T18:35:14.587Z,1006.77
2018-05-21T18:40:10.062Z,1006.76
2018-05-21T18:45:05.926Z,1006.81
2018-05-21T18:50:01.574Z,1006.82
2018-05-21T18:54:58.601Z,1006.78
2018-05-21T18:59:55.029Z,1006.85
2018-05-21T19:04:50.695Z,1006.85
2018-05-21T19:09:46.495Z,1006.93
2018-05-21T19:14:42.380Z,1006.95
2018-05-21T19:19:38.122Z,1006.91
2018-05-21T19:24:34.005Z,1007.04
2018-05-21T19:29:29.712Z,1006.98
2018-05-21T19:34:26.297Z,1007.04
2018-05-21T19:39:21.775Z,1006.98
2018-05-21T19:44:17.533Z,1007.03
2018-05-21T19:49:13.585Z,1007.02
2018-05-21T19:54:09.380Z,1007.05
2018-05-21T19:59:09.356Z,1007.14
2018-05-21T20:04:05.102Z,1007.13
2018-05-21T20:09:01.753Z,1007.09
2018-05-21T20:13:57.563Z,1007.16
2018-05-21T20:18:53.375Z,1007.17
2018-05-21T20:23:49.161Z,1007.32
2018-05-21T20:28:44.855Z,1007.25
2018-05-21T20:33:41.035Z,1007.10
2018-05-21T20:38:36.848Z,1007.15
2018-05-21T20:43:33.449Z,1007.24
2018-05-21T20:48:30.124Z,1007.26
2018-05-21T20:53:25.663Z,1007.15
2018-05-21T20:58:21.710Z,1007.08
2018-05-21T21:03:17.449Z,1007.18
2018-05-21T21:08:15.825Z,1007.14
2018-05-21T21:13:11.277Z,1007.24
2018-05-21T21:18:07.056Z,1007.23
2018-05-21T21:23:02.595Z,1007.23
2018-05-21T21:27:59.395Z,1007.05
2018-05-21T21:32:54.760Z,1007.15
2018-05-21T21:37:50.397Z,1007.10
2018-05-21T21:42:47.646Z,1007.08
2018-05-21T21:47:43.317Z,1007.00
2018-05-21T21:52:40.283Z,1006.99
2018-05-21T21:57:35.875Z,1006.97
2018-05-21T22:02:32.088Z,1006.95
2018-05-21T22:07:28.063Z,1006.88
2018-05-21T22:12:23.705Z,1006.87
2018-05-21T22:17:19.618Z,1006.89
2018-05-21T22:22:16.658Z,1006.87
2018-05-21T22:27:13.079Z,1006.80
2018-05-21T22:32:09.534Z,1006.63
2018-05-21T22:37:05.349Z,1006.61
2018-05-21T22:42:01.302Z,1006.62
2018-05-21T22:46:57.880Z,1006.58
2018-05-21T22:51:53.615Z,1006.58
2018-05-21T22:56:49.879Z,1006.49
2018-05-21T23:01:45.722Z,1006.42
2018-05-21T23:06:41.885Z,1006.38
2018-05-21T23:11:37.712Z,1006.37
2018-05-21T23:16:33.497Z,1006.29
2018-05-21T23:21:29.194Z,1006.27
2018-05-21T23:26:25.509Z,1006.25
2018-05-21T23:31:21.400Z,1006.17
2018-05-21T23:36:17.179Z,1006.18
2018-05-21T23:41:12.936Z,1006.23
2018-05-21T23:46:08.345Z,1006.20
2018-05-21T23:51:05.757Z,1006.24
2018-05-21T23:56:01.161Z,1006.13
